createdAt,value
2019-05-18T00:02:03.932Z,8.80
2019-05-18T00:04:32.022Z,8.80
2019-05-18T00:06:59.452Z,8.80
2019-05-18T00:09:27.318Z,8.80
2019-05-18T00:11:54.733Z,8.70
2019-05-18T00:14:22.163Z,8.70
2019-05-18T00:16:49.942Z,8.70
2019-05-18T00:19:17.706Z,8.70
2019-05-18T00:21:45.073Z,8.70
2019-05-18T00:24:12.440Z,8.70
2019-05-18T00:26:40.696Z,8.60
2019-05-18T00:29:08.155Z,8.60
2019-05-18T00:31:35.879Z,8.60
2019-05-18T00:34:03.256Z,8.50
2019-05-18T00:36:31.648Z,8.20
2019-05-18T00:38:58.925Z,8.20
2019-05-18T00:41:26.405Z,8.20
2019-05-18T00:43:53.825Z,8.20
2019-05-18T00:46:21.580Z,8.00
2019-05-18T00:48:48.997Z,8.10
2019-05-18T00:51:17.179Z,8.10
2019-05-18T00:53:45.524Z,8.10
2019-05-18T00:56:12.828Z,8.10
2019-05-18T00:58:40.206Z,8.10
2019-05-18T01:01:07.926Z,8.10
2019-05-18T01:03:35.393Z,8.10
2019-05-18T01:06:02.766Z,8.00
2019-05-18T01:08:30.540Z,8.00
2019-05-18T01:10:57.866Z,8.10
2019-05-18T01:13:25.257Z,8.10
2019-05-18T01:15:52.789Z,8.00
2019-05-18T01:18:20.656Z,8.00
2019-05-18T01:20:49.664Z,6.90
2019-05-18T01:23:17.370Z,7.80
2019-05-18T01:25:45.394Z,7.70
2019-05-18T01:28:12.675Z,7.70
2019-05-18T01:30:40.016Z,7.60
2019-05-18T01:33:07.340Z,7.70
2019-05-18T01:35:34.747Z,7.70
2019-05-18T01:38:02.906Z,7.60
2019-05-18T01:40:30.344Z,7.60
2019-05-18T01:42:58.047Z,7.60
2019-05-18T01:45:25.707Z,7.60
2019-05-18T01:47:53.132Z,7.60
2019-05-18T01:50:20.895Z,7.50
2019-05-18T01:52:48.298Z,7.50
2019-05-18T01:55:16.222Z,7.50
2019-05-18T01:57:43.540Z,7.50
2019-05-18T02:00:11.299Z,7.50
2019-05-18T02:02:38.683Z,7.50
2019-05-18T02:05:06.896Z,7.40
2019-05-18T02:07:34.657Z,7.30
2019-05-18T02:10:02.660Z,7.30
2019-05-18T02:12:30.253Z,7.30
2019-05-18T02:14:57.604Z,7.30
2019-05-18T02:17:25.338Z,7.20
2019-05-18T02:19:53.037Z,7.10
2019-05-18T02:22:21.516Z,7.10
2019-05-18T02:24:48.862Z,7.20
2019-05-18T02:27:16.272Z,7.20
2019-05-18T02:29:43.681Z,7.10
2019-05-18T02:32:10.998Z,7.10
2019-05-18T02:34:38.391Z,7.10
2019-05-18T02:37:05.761Z,7.10
2019-05-18T02:39:33.570Z,7.00
2019-05-18T02:42:01.186Z,7.00
2019-05-18T02:44:28.833Z,7.10
2019-05-18T02:46:56.195Z,7.00
2019-05-18T02:49:23.560Z,7.00
2019-05-18T02:51:51.085Z,7.00
2019-05-18T02:54:18.521Z,6.90
2019-05-18T02:56:46.232Z,6.90
2019-05-18T02:59:13.710Z,6.90
2019-05-18T03:01:41.174Z,6.90
2019-05-18T03:04:08.827Z,6.80
2019-05-18T03:06:36.317Z,6.70
2019-05-18T03:09:05.785Z,6.60
2019-05-18T03:11:33.541Z,6.60
2019-05-18T03:14:00.983Z,6.60
2019-05-18T03:16:28.654Z,6.60
2019-05-18T03:19:07.507Z,6.60
2019-05-18T03:21:26.310Z,6.60
2019-05-18T03:23:53.595Z,6.60
2019-05-18T03:26:21.255Z,6.70
2019-05-18T03:28:48.947Z,6.70
2019-05-18T03:31:16.412Z,6.60
2019-05-18T03:33:44.536Z,6.60
2019-05-18T03:36:11.922Z,6.60
2019-05-18T03:38:39.348Z,6.60
2019-05-18T03:41:07.002Z,6.50
2019-05-18T03:43:34.724Z,6.40
2019-05-18T03:46:03.074Z,6.40
2019-05-18T03:48:30.557Z,6.40
2019-05-18T03:50:58.234Z,6.30
2019-05-18T03:53:26.004Z,6.40
2019-05-18T03:55:53.783Z,6.50
2019-05-18T03:58:21.420Z,6.50
2019-05-18T04:00:48.907Z,6.50
2019-05-18T04:03:16.288Z,6.50
2019-05-18T04:05:43.747Z,6.50
2019-05-18T04:08:11.812Z,6.60
2019-05-18T04:10:39.633Z,6.70
2019-05-18T04:13:07.684Z,6.70
2019-05-18T04:15:35.051Z,6.70
2019-05-18T04:18:02.522Z,6.80
2019-05-18T04:20:30.210Z,6.90
2019-05-18T04:22:57.991Z,6.90
2019-05-18T04:25:25.291Z,6.90
2019-05-18T04:27:53.023Z,7.00
2019-05-18T04:30:20.385Z,7.10
2019-05-18T04:32:47.737Z,7.00
2019-05-18T04:35:16.213Z,7.00
2019-05-18T04:37:43.940Z,6.90
2019-05-18T04:40:11.768Z,7.00
2019-05-18T04:42:39.917Z,7.00
2019-05-18T04:45:07.765Z,7.20
2019-05-18T04:47:35.134Z,7.30
2019-05-18T04:50:05.717Z,7.30
2019-05-18T04:52:32.566Z,7.40
2019-05-18T04:55:00.387Z,7.60
2019-05-18T04:57:27.809Z,7.70
2019-05-18T04:59:55.603Z,7.70
2019-05-18T05:02:23.415Z,7.90
2019-05-18T05:04:53.890Z,7.90
2019-05-18T05:07:20.509Z,8.00
2019-05-18T05:09:48.295Z,8.10
2019-05-18T05:12:15.742Z,8.30
2019-05-18T05:14:43.080Z,8.40
2019-05-18T05:17:10.399Z,8.50
2019-05-18T05:19:38.155Z,8.70
2019-05-18T05:22:05.861Z,8.90
2019-05-18T05:24:33.284Z,9.00
2019-05-18T05:27:00.720Z,9.20
2019-05-18T05:29:29.266Z,9.50
2019-05-18T05:31:56.926Z,9.70
2019-05-18T05:34:25.875Z,10.00
2019-05-18T05:36:53.265Z,10.30
2019-05-18T05:39:20.658Z,10.60
2019-05-18T05:41:48.347Z,11.00
2019-05-18T05:44:15.865Z,11.00
2019-05-18T05:46:43.323Z,11.40
2019-05-18T05:49:10.709Z,11.70
2019-05-18T05:51:38.347Z,11.80
2019-05-18T05:54:06.021Z,12.10
2019-05-18T05:56:33.660Z,12.40
2019-05-18T05:59:01.214Z,12.90
2019-05-18T06:01:28.648Z,13.50
2019-05-18T06:03:56.042Z,14.10
2019-05-18T06:06:23.304Z,13.90
2019-05-18T06:08:51.063Z,13.80
2019-05-18T06:11:18.816Z,14.70
2019-05-18T06:13:46.369Z,15.00
2019-05-18T06:16:13.785Z,15.30
2019-05-18T06:18:41.807Z,15.40
2019-05-18T06:21:09.241Z,15.50
2019-05-18T06:23:37.081Z,15.80
2019-05-18T06:26:04.525Z,16.60
2019-05-18T06:28:32.319Z,16.30
2019-05-18T06:30:59.727Z,17.10
2019-05-18T06:33:27.920Z,17.10
2019-05-18T06:35:55.641Z,17.50
2019-05-18T06:38:23.009Z,17.90
2019-05-18T06:40:50.348Z,18.10
2019-05-18T06:43:17.820Z,17.60
2019-05-18T06:45:45.213Z,18.20
2019-05-18T06:48:12.697Z,16.70
2019-05-18T06:50:40.882Z,16.80
2019-05-18T06:53:08.551Z,17.20
2019-05-18T06:55:36.678Z,17.40
2019-05-18T06:58:04.130Z,18.10
2019-05-18T07:00:31.457Z,18.60
2019-05-18T07:02:58.792Z,19.30
2019-05-18T07:05:26.691Z,19.30
2019-05-18T07:07:54.143Z,19.30
2019-05-18T07:10:21.631Z,19.70
2019-05-18T07:12:48.963Z,19.70
2019-05-18T07:15:17.907Z,19.90
2019-05-18T07:17:45.304Z,19.60
2019-05-18T07:20:12.870Z,19.80
2019-05-18T07:22:40.393Z,20.00
2019-05-18T07:25:07.825Z,20.50
2019-05-18T07:27:35.242Z,20.40
2019-05-18T07:30:02.952Z,20.80
2019-05-18T07:32:30.390Z,21.80
2019-05-18T07:34:57.757Z,21.10
2019-05-18T07:37:25.291Z,21.50
2019-05-18T07:39:52.806Z,22.30
2019-05-18T07:42:20.252Z,21.70
2019-05-18T07:44:47.720Z,22.10
2019-05-18T07:47:15.889Z,21.30
2019-05-18T07:49:43.461Z,21.60
2019-05-18T07:52:11.119Z,22.50
2019-05-18T07:54:38.602Z,22.50
2019-05-18T07:57:06.078Z,22.70
2019-05-18T07:59:33.834Z,23.50
2019-05-18T08:02:01.495Z,23.50
2019-05-18T08:04:28.975Z,24.00
2019-05-18T08:06:56.695Z,23.60
2019-05-18T08:09:24.580Z,23.50
2019-05-18T08:11:52.005Z,23.40
2019-05-18T08:14:19.684Z,23.40
2019-05-18T08:16:47.097Z,23.70
2019-05-18T08:19:15.124Z,24.20
2019-05-18T08:21:52.929Z,25.40
2019-05-18T08:24:12.110Z,25.10
2019-05-18T08:26:39.514Z,24.40
2019-05-18T08:29:07.290Z,24.10
2019-05-18T08:31:34.696Z,24.10
2019-05-18T08:34:02.173Z,23.90
2019-05-18T08:36:30.006Z,24.60
2019-05-18T08:38:57.573Z,25.20
2019-05-18T08:41:25.167Z,25.70
2019-05-18T08:43:53.203Z,24.60
2019-05-18T08:46:20.710Z,25.20
2019-05-18T08:48:48.379Z,25.60
2019-05-18T08:51:15.735Z,26.40
2019-05-18T08:53:44.034Z,26.00
2019-05-18T08:56:11.913Z,26.00
2019-05-18T08:58:39.295Z,25.30
2019-05-18T09:01:06.657Z,25.90
2019-05-18T09:03:34.477Z,26.50
2019-05-18T09:06:01.924Z,26.00
2019-05-18T09:08:29.894Z,26.90
2019-05-18T09:10:57.320Z,26.70
2019-05-18T09:13:24.796Z,26.40
2019-05-18T09:15:52.624Z,26.10
2019-05-18T09:18:20.395Z,25.50
2019-05-18T09:20:47.931Z,25.40
2019-05-18T09:23:15.448Z,26.60
2019-05-18T09:25:42.866Z,26.10
2019-05-18T09:28:10.456Z,27.20
2019-05-18T09:30:41.173Z,28.20
2019-05-18T09:33:08.044Z,27.80
2019-05-18T09:35:35.444Z,27.60
2019-05-18T09:38:02.764Z,28.00
2019-05-18T09:40:30.154Z,28.50
2019-05-18T09:42:57.742Z,28.40
2019-05-18T09:45:25.513Z,28.40
2019-05-18T09:47:54.819Z,27.70
2019-05-18T09:50:22.390Z,28.90
2019-05-18T09:52:50.101Z,29.50
2019-05-18T09:55:18.128Z,29.70
2019-05-18T09:57:45.870Z,29.80
2019-05-18T10:00:14.396Z,28.70
2019-05-18T10:02:41.837Z,28.50
2019-05-18T10:05:13.791Z,28.50
2019-05-18T10:07:42.335Z,28.40
2019-05-18T10:10:10.088Z,27.80
2019-05-18T10:12:37.432Z,28.50
2019-05-18T10:15:05.174Z,28.10
2019-05-18T10:17:32.934Z,28.90
2019-05-18T10:20:00.573Z,28.80
2019-05-18T10:22:28.259Z,28.80
2019-05-18T10:24:55.724Z,29.00
2019-05-18T10:27:23.106Z,29.30
2019-05-18T10:29:54.283Z,30.40
2019-05-18T10:32:22.496Z,30.80
2019-05-18T10:34:50.136Z,29.70
2019-05-18T10:37:17.543Z,29.60
2019-05-18T10:39:45.440Z,29.30
2019-05-18T10:42:13.105Z,30.30
2019-05-18T10:44:40.557Z,30.30
2019-05-18T10:47:08.225Z,29.40
2019-05-18T10:49:35.715Z,28.80
2019-05-18T10:52:04.640Z,28.80
2019-05-18T10:54:31.975Z,28.80
2019-05-18T10:56:59.842Z,29.90
2019-05-18T10:59:27.224Z,30.10
2019-05-18T11:01:55.004Z,29.60
2019-05-18T11:04:22.902Z,28.60
2019-05-18T11:06:50.280Z,28.70
2019-05-18T11:09:18.242Z,29.60
2019-05-18T11:11:45.601Z,27.20
2019-05-18T11:14:13.212Z,28.60
2019-05-18T11:16:40.660Z,29.00
2019-05-18T11:19:08.484Z,28.40
2019-05-18T11:21:35.898Z,29.30
2019-05-18T11:24:03.251Z,30.00
2019-05-18T11:26:30.643Z,29.20
2019-05-18T11:28:58.077Z,29.60
2019-05-18T11:31:25.531Z,29.10
2019-05-18T11:33:52.964Z,29.50
2019-05-18T11:36:20.360Z,30.30
2019-05-18T11:38:47.698Z,26.70
2019-05-18T11:41:15.442Z,27.20
2019-05-18T11:43:42.857Z,28.60
2019-05-18T11:46:10.272Z,29.60
2019-05-18T11:48:37.715Z,30.10
2019-05-18T11:51:05.719Z,30.90
2019-05-18T11:53:33.407Z,32.00
2019-05-18T11:56:00.752Z,32.60
2019-05-18T11:58:30.495Z,32.30
2019-05-18T12:00:57.937Z,30.60
2019-05-18T12:03:25.743Z,32.20
2019-05-18T12:05:53.733Z,31.00
2019-05-18T12:08:21.180Z,31.20
2019-05-18T12:10:48.837Z,31.00
2019-05-18T12:13:16.213Z,31.80
2019-05-18T12:15:43.649Z,29.50
2019-05-18T12:18:11.052Z,29.90
2019-05-18T12:20:38.761Z,28.50
2019-05-18T12:23:08.604Z,29.40
2019-05-18T12:25:35.578Z,29.90
2019-05-18T12:28:02.952Z,30.90
2019-05-18T12:30:30.802Z,30.90
2019-05-18T12:32:58.284Z,28.70
2019-05-18T12:35:25.658Z,26.50
2019-05-18T12:37:53.334Z,25.80
2019-05-18T12:40:21.526Z,25.20
2019-05-18T12:42:49.495Z,26.10
2019-05-18T12:45:17.631Z,27.20
2019-05-18T12:47:45.786Z,28.30
2019-05-18T12:50:14.410Z,28.10
2019-05-18T12:52:41.855Z,26.50
2019-05-18T12:55:09.722Z,25.40
2019-05-18T12:57:37.174Z,24.40
2019-05-18T13:00:05.457Z,24.20
2019-05-18T13:02:32.819Z,24.50
2019-05-18T13:05:00.347Z,25.40
2019-05-18T13:07:27.729Z,26.00
2019-05-18T13:09:55.061Z,25.00
2019-05-18T13:12:22.560Z,24.60
2019-05-18T13:14:50.197Z,23.90
2019-05-18T13:17:17.569Z,23.80
2019-05-18T13:19:45.289Z,23.80
2019-05-18T13:22:12.990Z,23.60
2019-05-18T13:24:45.151Z,23.80
2019-05-18T13:27:09.799Z,23.70
2019-05-18T13:29:37.757Z,24.10
2019-05-18T13:32:05.159Z,24.90
2019-05-18T13:34:32.891Z,24.60
2019-05-18T13:37:00.533Z,24.30
2019-05-18T13:39:28.233Z,23.40
2019-05-18T13:41:55.965Z,23.70
2019-05-18T13:44:23.713Z,23.40
2019-05-18T13:46:51.140Z,23.70
2019-05-18T13:49:18.867Z,23.60
2019-05-18T13:51:46.842Z,23.40
2019-05-18T13:54:14.238Z,23.40
2019-05-18T13:56:42.458Z,23.60
2019-05-18T13:59:17.764Z,23.90
2019-05-18T14:01:45.281Z,24.00
2019-05-18T14:04:13.387Z,24.50
2019-05-18T14:06:41.036Z,24.90
2019-05-18T14:09:08.986Z,25.00
2019-05-18T14:11:36.471Z,25.60
2019-05-18T14:14:04.145Z,24.90
2019-05-18T14:16:39.620Z,24.60
2019-05-18T14:19:07.986Z,24.20
2019-05-18T14:21:35.440Z,23.50
2019-05-18T14:24:02.882Z,23.20
2019-05-18T14:26:31.077Z,22.80
2019-05-18T14:29:01.382Z,22.70
2019-05-18T14:31:29.655Z,22.90
2019-05-18T14:33:57.120Z,23.00
2019-05-18T14:36:24.811Z,23.00
2019-05-18T14:38:56.867Z,22.70
2019-05-18T14:41:28.061Z,22.70
2019-05-18T14:43:55.522Z,22.80
2019-05-18T14:46:22.961Z,22.60
2019-05-18T14:48:50.592Z,22.50
2019-05-18T14:51:18.268Z,22.60
2019-05-18T14:53:45.588Z,22.40
2019-05-18T14:56:13.545Z,22.50
2019-05-18T14:58:41.562Z,22.50
2019-05-18T15:01:09.200Z,22.50
2019-05-18T15:03:36.926Z,22.30
2019-05-18T15:06:04.458Z,22.30
2019-05-18T15:08:32.196Z,22.20
2019-05-18T15:10:59.747Z,22.50
2019-05-18T15:13:27.249Z,22.40
2019-05-18T15:15:55.029Z,22.60
2019-05-18T15:18:22.529Z,22.60
2019-05-18T15:20:49.915Z,22.90
2019-05-18T15:23:17.553Z,23.30
2019-05-18T15:25:50.612Z,23.50
2019-05-18T15:28:14.316Z,23.60
2019-05-18T15:30:41.710Z,23.50
2019-05-18T15:33:09.082Z,23.60
2019-05-18T15:35:36.611Z,23.70
2019-05-18T15:38:04.161Z,23.90
2019-05-18T15:40:31.644Z,24.10
2019-05-18T15:42:59.106Z,23.80
2019-05-18T15:45:26.493Z,23.70
2019-05-18T15:47:54.775Z,23.70
2019-05-18T15:50:22.534Z,23.80
2019-05-18T15:52:49.968Z,23.60
2019-05-18T15:55:17.698Z,23.10
2019-05-18T15:57:46.016Z,22.80
2019-05-18T16:00:14.675Z,22.40
2019-05-18T16:02:42.153Z,21.90
2019-05-18T16:05:09.705Z,21.40
2019-05-18T16:07:37.458Z,20.90
2019-05-18T16:10:05.634Z,20.50
2019-05-18T16:12:33.573Z,19.90
2019-05-18T16:15:01.786Z,18.60
2019-05-18T16:17:38.880Z,18.60
2019-05-18T16:19:59.329Z,18.70
2019-05-18T16:22:26.990Z,18.80
2019-05-18T16:24:54.505Z,19.20
2019-05-18T16:27:21.921Z,19.30
2019-05-18T16:29:49.416Z,19.40
2019-05-18T16:32:16.764Z,19.50
2019-05-18T16:34:45.226Z,19.70
2019-05-18T16:37:12.586Z,19.90
2019-05-18T16:39:40.494Z,20.10
2019-05-18T16:42:07.984Z,20.30
2019-05-18T16:44:35.726Z,20.40
2019-05-18T16:47:03.169Z,20.60
2019-05-18T16:49:30.790Z,20.60
2019-05-18T16:51:58.786Z,20.70
2019-05-18T16:54:26.150Z,20.60
2019-05-18T16:56:53.738Z,20.70
2019-05-18T16:59:21.522Z,20.40
2019-05-18T17:01:49.220Z,20.30
2019-05-18T17:04:16.634Z,20.40
2019-05-18T17:06:44.037Z,20.30
2019-05-18T17:09:11.545Z,20.30
2019-05-18T17:11:39.011Z,20.30
2019-05-18T17:14:06.661Z,20.30
2019-05-18T17:16:34.076Z,20.40
2019-05-18T17:19:01.802Z,20.40
2019-05-18T17:21:29.834Z,20.10
2019-05-18T17:23:57.635Z,20.00
2019-05-18T17:26:25.676Z,19.90
2019-05-18T17:28:53.289Z,19.80
2019-05-18T17:31:21.017Z,19.80
2019-05-18T17:33:48.442Z,19.70
2019-05-18T17:36:16.287Z,19.70
2019-05-18T17:38:43.708Z,19.60
2019-05-18T17:41:11.427Z,19.60
2019-05-18T17:43:39.053Z,19.50
2019-05-18T17:46:06.577Z,19.40
2019-05-18T17:48:34.092Z,19.30
2019-05-18T17:51:02.164Z,19.20
2019-05-18T17:53:29.773Z,19.20
2019-05-18T17:55:57.476Z,19.10
2019-05-18T17:58:25.070Z,19.00
2019-05-18T18:00:52.829Z,18.90
2019-05-18T18:03:20.876Z,18.80
2019-05-18T18:05:48.299Z,18.70
2019-05-18T18:08:15.924Z,18.70
2019-05-18T18:10:43.901Z,18.50
2019-05-18T18:13:11.312Z,18.40
2019-05-18T18:15:38.735Z,18.30
2019-05-18T18:18:07.540Z,18.30
2019-05-18T18:20:35.552Z,18.20
2019-05-18T18:23:05.935Z,18.10
2019-05-18T18:25:33.783Z,18.10
2019-05-18T18:28:01.334Z,18.00
2019-05-18T18:30:28.839Z,17.90
2019-05-18T18:32:56.636Z,17.80
2019-05-18T18:35:24.532Z,17.70
2019-05-18T18:37:51.923Z,17.60
2019-05-18T18:40:19.438Z,17.40
2019-05-18T18:42:47.345Z,17.10
2019-05-18T18:45:15.109Z,16.80
2019-05-18T18:47:42.836Z,16.60
2019-05-18T18:50:10.723Z,16.60
2019-05-18T18:52:38.305Z,16.50
2019-05-18T18:55:05.892Z,16.50
2019-05-18T18:57:41.316Z,16.30
2019-05-18T19:00:04.199Z,16.30
2019-05-18T19:02:31.558Z,16.20
2019-05-18T19:04:59.039Z,16.20
2019-05-18T19:07:26.952Z,16.00
2019-05-18T19:09:54.622Z,15.90
2019-05-18T19:12:22.854Z,15.80
2019-05-18T19:14:50.562Z,15.80
2019-05-18T19:17:18.044Z,15.70
2019-05-18T19:19:45.765Z,15.60
2019-05-18T19:22:13.279Z,15.60
2019-05-18T19:24:41.201Z,15.40
2019-05-18T19:27:08.926Z,15.40
2019-05-18T19:29:36.445Z,15.30
2019-05-18T19:32:04.201Z,15.20
2019-05-18T19:34:31.869Z,15.10
2019-05-18T19:36:59.230Z,15.00
2019-05-18T19:39:26.775Z,15.00
2019-05-18T19:41:54.443Z,15.30
2019-05-18T19:44:23.927Z,14.90
2019-05-18T19:46:51.116Z,14.90
2019-05-18T19:49:19.477Z,14.80
2019-05-18T19:51:46.952Z,14.70
2019-05-18T19:54:14.675Z,14.70
2019-05-18T19:56:43.813Z,14.70
2019-05-18T19:59:11.876Z,14.60
2019-05-18T20:01:39.219Z,14.50
2019-05-18T20:04:06.630Z,14.90
2019-05-18T20:06:34.328Z,14.60
2019-05-18T20:09:02.029Z,14.50
2019-05-18T20:11:30.025Z,14.50
2019-05-18T20:13:57.433Z,14.40
2019-05-18T20:16:24.832Z,14.40
2019-05-18T20:18:52.350Z,14.40
2019-05-18T20:21:19.809Z,14.30
2019-05-18T20:23:47.260Z,14.30
2019-05-18T20:26:14.768Z,14.30
2019-05-18T20:28:42.470Z,14.20
2019-05-18T20:31:09.872Z,14.00
2019-05-18T20:33:37.297Z,13.90
2019-05-18T20:36:05.217Z,13.80
2019-05-18T20:38:32.888Z,13.90
2019-05-18T20:41:00.528Z,13.90
2019-05-18T20:43:42.552Z,13.90
2019-05-18T20:46:10.906Z,13.80
2019-05-18T20:48:38.324Z,13.80
2019-05-18T20:51:06.188Z,13.70
2019-05-18T20:53:33.539Z,13.60
2019-05-18T20:56:00.960Z,13.60
2019-05-18T20:58:39.487Z,13.60
2019-05-18T21:00:58.062Z,13.50
2019-05-18T21:03:25.524Z,13.60
2019-05-18T21:05:52.858Z,13.50
2019-05-18T21:08:20.906Z,13.50
2019-05-18T21:10:48.360Z,13.50
2019-05-18T21:13:15.714Z,13.40
2019-05-18T21:15:43.206Z,13.40
2019-05-18T21:18:11.097Z,13.50
2019-05-18T21:20:38.632Z,13.40
2019-05-18T21:23:06.460Z,13.30
2019-05-18T21:25:33.894Z,13.30
2019-05-18T21:28:01.414Z,13.20
2019-05-18T21:30:28.989Z,13.10
2019-05-18T21:32:56.318Z,13.10
2019-05-18T21:35:23.731Z,13.10
2019-05-18T21:37:51.150Z,13.00
2019-05-18T21:40:18.897Z,13.00
2019-05-18T21:42:46.710Z,12.90
2019-05-18T21:45:14.173Z,12.80
2019-05-18T21:47:41.471Z,12.80
2019-05-18T21:50:09.678Z,12.90
2019-05-18T21:52:37.420Z,13.00
2019-05-18T21:55:05.285Z,13.00
2019-05-18T21:57:33.636Z,13.00
2019-05-18T22:00:01.482Z,13.00
2019-05-18T22:02:28.929Z,12.90
2019-05-18T22:04:56.545Z,12.90
2019-05-18T22:07:23.921Z,13.00
2019-05-18T22:09:53.688Z,11.90
2019-05-18T22:12:20.578Z,13.00
2019-05-18T22:14:48.005Z,12.90
2019-05-18T22:17:15.990Z,12.70
2019-05-18T22:19:43.442Z,12.60
2019-05-18T22:22:11.067Z,12.60
2019-05-18T22:24:38.874Z,12.70
2019-05-18T22:27:06.239Z,12.70
2019-05-18T22:29:33.603Z,12.70
2019-05-18T22:32:01.286Z,12.70
2019-05-18T22:34:28.887Z,12.70
2019-05-18T22:36:56.238Z,12.70
2019-05-18T22:39:26.575Z,12.70
2019-05-18T22:41:53.178Z,12.70
2019-05-18T22:44:20.449Z,12.70
2019-05-18T22:46:47.775Z,12.60
2019-05-18T22:49:15.181Z,12.60
2019-05-18T22:51:42.588Z,12.50
2019-05-18T22:54:09.970Z,12.40
2019-05-18T22:56:37.720Z,12.40
2019-05-18T22:59:05.279Z,12.30
2019-05-18T23:01:32.710Z,12.30
2019-05-18T23:03:59.994Z,12.20
2019-05-18T23:06:27.494Z,12.20
2019-05-18T23:08:54.972Z,12.20
2019-05-18T23:11:22.238Z,12.10
2019-05-18T23:13:49.854Z,12.00
2019-05-18T23:16:17.785Z,12.00
2019-05-18T23:18:56.321Z,12.00
2019-05-18T23:21:14.792Z,12.00
2019-05-18T23:23:42.139Z,11.80
2019-05-18T23:26:11.738Z,11.70
2019-05-18T23:28:39.313Z,11.50
2019-05-18T23:31:06.647Z,11.60
2019-05-18T23:33:34.556Z,11.60
2019-05-18T23:36:02.015Z,11.50
2019-05-18T23:38:29.445Z,11.50
2019-05-18T23:40:57.550Z,11.50
2019-05-18T23:43:24.848Z,11.50
2019-05-18T23:45:52.265Z,11.50
2019-05-18T23:48:20.290Z,11.40
2019-05-18T23:50:47.672Z,11.40
2019-05-18T23:53:15.084Z,11.40
2019-05-18T23:55:42.717Z,11.40
2019-05-18T23:58:10.144Z,11.40
